Time;durP1;ratioP1;P1;durP2;ratioP2;P2;SDS_P1;SDS_P2;PMS_P1;PMS_P2;Temp;Humidity;BMP_temperature;BMP_pressure;BME280_temperature;BME280_humidity;BME280_pressure;Samples;Min_cycle;Max_cycle;Signal;HPM_P1;HPM_P2
2022/06/04 00:00:37;;;;;;;0.50;0.50;;;19.60;85.90;;;;;;4407885;32;20358;-69
2022/06/04 00:03:03;;;;;;;0.50;0.50;;;19.60;86.50;;;;;;4427582;32;20140;-69
2022/06/04 00:05:31;;;;;;;0.22;0.22;;;19.50;87.00;;;;;;4429508;32;20112;-69
2022/06/04 00:07:59;;;;;;;0.35;0.32;;;19.40;86.80;;;;;;4429970;32;20533;-69
2022/06/04 00:15:29;;;;;;;5.43;0.55;;;19.30;87.40;;;;;;4437621;32;20093;-69
2022/06/04 00:16:01;;;;;;;0.30;0.30;;;19.30;87.70;;;;;;4431841;32;20152;-69
2022/06/04 00:18:27;;;;;;;0.40;0.40;;;19.30;87.40;;;;;;4430265;32;20174;-69
2022/06/04 00:20:53;;;;;;;0.32;0.32;;;19.40;87.40;;;;;;4429802;32;20155;-69
2022/06/04 00:23:19;;;;;;;0.75;0.55;;;19.50;87.40;;;;;;4429660;32;20172;-69
2022/06/04 00:25:49;;;;;;;0.40;0.40;;;19.40;87.30;;;;;;4430307;32;20110;-68
2022/06/04 00:28:16;;;;;;;0.67;0.47;;;19.30;87.70;;;;;;4420605;32;20674;-68
2022/06/04 00:30:42;;;;;;;0.30;0.30;;;19.30;88.60;;;;;;4410724;32;20588;-68
2022/06/04 00:33:08;;;;;;;0.28;0.28;;;19.30;87.70;;;;;;4428062;32;20065;-68
2022/06/04 00:35:34;;;;;;;0.30;0.30;;;19.30;88.00;;;;;;4427301;32;20155;-69
2022/06/04 00:38:01;;;;;;;0.32;0.30;;;19.10;88.80;;;;;;4428059;32;20108;-68
2022/06/04 00:40:51;;;;;;;1.75;0.35;;;19.10;89.00;;;;;;4430551;32;20708;-69
2022/06/04 00:43:19;;;;;;;0.50;0.40;;;19.10;89.20;;;;;;4428877;32;20410;-69
2022/06/04 00:46:24;;;;;;;0.98;0.70;;;19.10;89.50;;;;;;4434104;32;20146;-69
2022/06/04 00:48:49;;;;;;;0.50;0.50;;;19.10;90.20;;;;;;4440127;32;20092;-69
2022/06/04 00:51:15;;;;;;;0.37;0.37;;;19.10;90.10;;;;;;4436056;32;20069;-69
2022/06/04 00:53:41;;;;;;;1.00;0.70;;;19.10;90.30;;;;;;4438324;32;20218;-69
2022/06/04 00:56:14;;;;;;;0.47;0.47;;;19.10;90.30;;;;;;4434134;32;20783;-68
2022/06/04 00:58:57;;;;;;;0.43;0.40;;;19.10;90.40;;;;;;4426761;32;20061;-68
2022/06/04 01:01:26;;;;;;;0.25;0.25;;;19.10;90.30;;;;;;4420748;32;20713;-68
2022/06/04 01:04:13;;;;;;;0.30;0.30;;;19.10;90.70;;;;;;4437138;32;20089;-68
2022/06/04 01:06:48;;;;;;;0.50;0.40;;;18.90;90.70;;;;;;4437760;32;20062;-68
2022/06/04 01:09:53;;;;;;;0.57;0.55;;;19.00;90.90;;;;;;4438757;32;20420;-68
2022/06/04 01:12:35;;;;;;;0.50;0.50;;;18.90;91.00;;;;;;4442025;32;20065;-68
2022/06/04 01:15:14;;;;;;;0.30;0.30;;;18.90;91.10;;;;;;4441722;32;20089;-69
2022/06/04 01:17:57;;;;;;;0.82;0.40;;;18.90;91.10;;;;;;4432886;32;20151;-69
2022/06/04 01:20:35;;;;;;;0.30;0.30;;;18.90;91.20;;;;;;4430394;32;20745;-69
2022/06/04 01:23:40;;;;;;;5.28;0.57;;;18.90;91.20;;;;;;4430972;32;20085;-69
2022/06/04 01:26:34;;;;;;;0.47;0.47;;;18.90;91.30;;;;;;4439335;32;20082;-69
2022/06/04 01:29:07;;;;;;;0.20;0.20;;;18.90;91.40;;;;;;4424717;32;20471;-69
2022/06/04 01:31:40;;;;;;;0.45;0.45;;;18.90;91.30;;;;;;4418409;32;85046;-69
2022/06/04 01:34:09;;;;;;;17.25;1.35;;;18.90;91.50;;;;;;4441341;32;20098;-69
2022/06/04 01:37:00;;;;;;;1.15;0.62;;;18.90;91.60;;;;;;4438802;32;20234;-69
2022/06/04 01:41:03;;;;;;;0.40;0.40;;;18.90;91.70;;;;;;4438298;32;20135;-69
2022/06/04 01:42:17;;;;;;;0.52;0.40;;;18.90;92.10;;;;;;4441322;32;20056;-69
2022/06/04 01:44:43;;;;;;;0.55;0.50;;;18.80;92.10;;;;;;4437545;32;20088;-69
2022/06/04 01:47:09;;;;;;;0.73;0.50;;;18.70;92.30;;;;;;4435652;32;20086;-69
2022/06/04 01:49:41;;;;;;;1.95;0.50;;;18.70;92.40;;;;;;4440367;32;20065;-69
2022/06/04 01:52:12;;;;;;;0.32;0.32;;;18.70;92.50;;;;;;4436362;32;20077;-69
2022/06/04 01:54:45;;;;;;;0.45;0.45;;;18.70;92.60;;;;;;4438870;32;20057;-68
2022/06/04 01:57:26;;;;;;;2.33;0.68;;;18.60;92.70;;;;;;4435581;32;20212;-69
2022/06/04 01:59:54;;;;;;;;;;;18.60;93.00;;;;;;4422415;32;20056;-69
2022/06/04 02:02:27;;;;;;;0.40;0.40;;;18.60;93.20;;;;;;4428179;32;20430;-69
2022/06/04 02:04:59;;;;;;;0.22;0.22;;;18.60;93.20;;;;;;4437837;32;20084;-69
2022/06/04 02:07:32;;;;;;;0.43;0.43;;;18.50;93.40;;;;;;4436850;32;20073;-69
2022/06/04 02:10:07;;;;;;;0.50;0.50;;;18.50;93.70;;;;;;4438479;32;20065;-68
2022/06/04 02:12:33;;;;;;;0.30;0.30;;;18.50;93.70;;;;;;4430299;32;20089;-69
2022/06/04 02:15:02;;;;;;;0.30;0.30;;;18.40;94.00;;;;;;4430156;32;20069;-69
2022/06/04 02:17:29;;;;;;;0.30;0.30;;;18.40;94.00;;;;;;4429762;32;20139;-69
2022/06/04 02:19:55;;;;;;;0.30;0.30;;;18.40;94.20;;;;;;4427608;32;20107;-69
2022/06/04 02:22:20;;;;;;;0.40;0.40;;;18.50;94.40;;;;;;4431036;32;20139;-69
2022/06/04 02:24:46;;;;;;;0.30;0.30;;;18.50;94.00;;;;;;4429537;32;20074;-69
2022/06/04 02:27:12;;;;;;;0.47;0.47;;;18.40;94.30;;;;;;4427511;32;20111;-69
2022/06/04 02:29:38;;;;;;;0.20;0.20;;;18.40;94.20;;;;;;4410666;32;20090;-69
2022/06/04 02:32:25;;;;;;;1.48;1.05;;;18.40;94.30;;;;;;4424414;32;20548;-69
2022/06/04 02:35:01;;;;;;;0.30;0.30;;;18.40;94.50;;;;;;4436437;32;20120;-69
2022/06/04 02:37:52;;;;;;;0.40;0.40;;;18.40;94.50;;;;;;4434547;32;20161;-68
2022/06/04 02:40:20;;;;;;;;;;;18.40;94.60;;;;;;4429952;32;20596;-68
2022/06/04 02:42:54;;;;;;;1.12;0.90;;;18.30;94.50;;;;;;4433663;32;19995;-69
2022/06/04 02:45:27;;;;;;;0.32;0.32;;;18.30;94.60;;;;;;4438121;32;20049;-69
2022/06/04 02:48:01;;;;;;;0.73;0.40;;;18.20;95.00;;;;;;4430304;32;20089;-69
2022/06/04 02:50:34;;;;;;;0.30;0.30;;;18.20;95.10;;;;;;4429205;32;20082;-69
2022/06/04 02:53:02;;;;;;;0.25;0.25;;;18.20;94.90;;;;;;4430534;32;20139;-69
2022/06/04 02:55:33;;;;;;;0.50;0.50;;;18.20;95.30;;;;;;4428440;32;20059;-69
2022/06/04 02:58:02;;;;;;;0.35;0.35;;;18.20;96.20;;;;;;4421536;32;20248;-69
2022/06/04 03:00:28;;;;;;;0.28;0.28;;;18.10;96.50;;;;;;4406708;32;20527;-69
2022/06/04 03:02:54;;;;;;;3.53;0.40;;;18.10;96.80;;;;;;4431947;32;20053;-69
2022/06/04 03:05:23;;;;;;;0.70;0.70;;;18.00;97.10;;;;;;4444097;32;20073;-69
2022/06/04 03:07:51;;;;;;;0.43;0.43;;;18.00;97.00;;;;;;4437347;32;20520;-69
2022/06/04 03:10:20;;;;;;;0.40;0.40;;;18.00;96.90;;;;;;4446838;32;20065;-69
2022/06/04 03:12:46;;;;;;;0.50;0.37;;;18.00;96.80;;;;;;4441397;32;20082;-69
2022/06/04 03:15:12;;;;;;;0.20;0.20;;;17.90;97.20;;;;;;4437463;32;20065;-69
2022/06/04 03:17:41;;;;;;;0.30;0.30;;;17.80;96.70;;;;;;4442581;32;20061;-69
2022/06/04 03:20:07;;;;;;;2.05;0.60;;;17.80;96.70;;;;;;4439523;32;20123;-69
2022/06/04 03:22:34;;;;;;;0.28;0.28;;;17.80;96.80;;;;;;4440902;32;20065;-69
2022/06/04 03:24:59;;;;;;;0.55;0.52;;;17.80;96.90;;;;;;4445305;32;20057;-69
2022/06/04 03:27:25;;;;;;;0.25;0.25;;;17.90;96.40;;;;;;4438695;32;20601;-69
2022/06/04 03:29:50;;;;;;;0.40;0.40;;;17.90;96.20;;;;;;4417360;32;20057;-69
2022/06/04 03:32:16;;;;;;;0.30;0.30;;;18.00;96.20;;;;;;4436627;32;20419;-69
2022/06/04 03:34:41;;;;;;;0.50;0.50;;;17.90;96.40;;;;;;4443537;32;20081;-69
2022/06/04 03:37:07;;;;;;;0.32;0.32;;;17.80;96.40;;;;;;4437380;32;20122;-68
2022/06/04 03:39:33;;;;;;;0.70;0.70;;;17.80;96.60;;;;;;4446634;32;20664;-69
2022/06/04 03:41:59;;;;;;;0.28;0.28;;;17.70;96.60;;;;;;4441980;32;20114;-69
2022/06/04 03:44:24;;;;;;;2.00;0.70;;;17.80;97.10;;;;;;4438349;32;20085;-69
2022/06/04 03:46:49;;;;;;;0.32;0.32;;;17.70;96.80;;;;;;4439030;32;20593;-69
2022/06/04 03:49:15;;;;;;;0.30;0.30;;;17.70;96.40;;;;;;4444293;32;20057;-69
2022/06/04 03:51:41;;;;;;;0.30;0.30;;;17.80;96.40;;;;;;4438536;32;20082;-69
2022/06/04 03:54:07;;;;;;;0.45;0.45;;;17.80;96.60;;;;;;4443891;32;20060;-69
2022/06/04 03:56:32;;;;;;;0.30;0.30;;;17.80;96.70;;;;;;4444575;32;20581;-68
2022/06/04 03:58:58;;;;;;;0.22;0.22;;;17.70;96.50;;;;;;4426024;32;20080;-69
2022/06/04 04:01:27;;;;;;;0.30;0.30;;;17.60;96.70;;;;;;4423638;32;20085;-69
2022/06/04 04:03:53;;;;;;;0.37;0.37;;;17.70;96.60;;;;;;4442299;32;20078;-69
2022/06/04 04:06:22;;;;;;;0.55;0.50;;;17.70;96.80;;;;;;4439028;32;20135;-69
2022/06/04 04:08:48;;;;;;;1.10;0.30;;;17.60;96.70;;;;;;4440187;32;20458;-68
2022/06/04 04:11:15;;;;;;;0.40;0.40;;;17.60;96.70;;;;;;4442887;32;20077;-69
2022/06/04 04:13:42;;;;;;;0.40;0.40;;;17.60;96.60;;;;;;4438000;32;20564;-69
2022/06/04 04:16:09;;;;;;;0.30;0.30;;;17.50;96.80;;;;;;4442114;32;20093;-69
2022/06/04 04:18:35;;;;;;;0.40;0.40;;;17.60;96.60;;;;;;4439789;32;20081;-69
2022/06/04 04:21:10;;;;;;;0.40;0.40;;;17.50;96.20;;;;;;4435648;32;20072;-69
2022/06/04 04:23:39;;;;;;;0.30;0.30;;;17.50;96.50;;;;;;4440233;32;20054;-69
2022/06/04 04:26:07;;;;;;;0.57;0.57;;;17.50;96.40;;;;;;4441328;32;20084;-69
2022/06/04 04:28:32;;;;;;;0.60;0.60;;;17.50;96.30;;;;;;4428184;32;20061;-69
2022/06/04 04:30:58;;;;;;;0.30;0.30;;;17.40;96.00;;;;;;4419293;32;20437;-69
2022/06/04 04:33:24;;;;;;;0.20;0.20;;;17.50;96.00;;;;;;4438971;32;20116;-69
2022/06/04 04:35:49;;;;;;;0.40;0.40;;;17.60;95.70;;;;;;4440081;32;20082;-68
2022/06/04 04:38:18;;;;;;;0.75;0.73;;;17.60;95.60;;;;;;4438465;32;20069;-67
2022/06/04 04:40:44;;;;;;;0.40;0.40;;;17.50;95.80;;;;;;4443078;32;20596;-68
2022/06/04 04:43:10;;;;;;;0.10;0.10;;;17.60;95.70;;;;;;4442489;32;20073;-68
2022/06/04 04:45:37;;;;;;;0.50;0.50;;;17.60;95.30;;;;;;4441544;32;20555;-68
2022/06/04 04:48:03;;;;;;;0.37;0.37;;;17.50;95.60;;;;;;4439287;32;20578;-68
2022/06/04 04:50:32;;;;;;;0.30;0.30;;;17.60;95.90;;;;;;4440171;32;20073;-67
2022/06/04 04:52:58;;;;;;;1.35;0.77;;;17.60;95.90;;;;;;4440406;32;20074;-69
2022/06/04 04:55:24;;;;;;;0.20;0.20;;;17.60;96.00;;;;;;4441145;32;20089;-69
2022/06/04 04:57:50;;;;;;;0.73;0.50;;;17.60;95.60;;;;;;4434022;32;20069;-69
2022/06/04 05:00:17;;;;;;;0.37;0.37;;;17.50;95.70;;;;;;4415708;32;20077;-69
2022/06/04 05:02:43;;;;;;;0.40;0.40;;;17.60;95.80;;;;;;4441167;32;20516;-69
2022/06/04 05:05:11;;;;;;;2.47;1.17;;;17.60;95.30;;;;;;4441958;32;20470;-68
2022/06/04 05:07:37;;;;;;;0.40;0.40;;;17.70;95.40;;;;;;4440977;32;20089;-68
2022/06/04 05:10:03;;;;;;;0.40;0.40;;;17.70;95.50;;;;;;4436866;32;20143;-68
2022/06/04 05:12:28;;;;;;;0.30;0.30;;;17.60;95.80;;;;;;4436209;32;20054;-68
2022/06/04 05:14:54;;;;;;;0.47;0.40;;;17.60;95.30;;;;;;4438704;32;20092;-68
2022/06/04 05:17:19;;;;;;;0.20;0.20;;;17.70;95.20;;;;;;4437781;32;20065;-68
2022/06/04 05:19:45;;;;;;;0.32;0.32;;;17.70;95.20;;;;;;4437993;32;20534;-68
2022/06/04 05:22:10;;;;;;;1.45;0.47;;;17.70;94.90;;;;;;4439249;32;20121;-68
2022/06/04 05:24:36;;;;;;;0.40;0.40;;;17.50;95.10;;;;;;4438647;32;20064;-68
2022/06/04 05:27:03;;;;;;;0.25;0.25;;;17.60;95.10;;;;;;4439893;32;20065;-68
2022/06/04 05:29:31;;;;;;;1.75;0.98;;;17.60;95.10;;;;;;4414787;32;20069;-68
2022/06/04 05:31:57;;;;;;;0.40;0.40;;;17.50;94.90;;;;;;4416530;32;20085;-68
2022/06/04 05:34:25;;;;;;;0.43;0.43;;;17.50;95.20;;;;;;4431087;32;20851;-68
2022/06/04 05:36:53;;;;;;;0.30;0.30;;;17.50;94.90;;;;;;4428703;32;20449;-68
2022/06/04 05:39:19;;;;;;;0.40;0.40;;;17.50;95.00;;;;;;4428313;32;20153;-68
2022/06/04 05:41:45;;;;;;;0.30;0.30;;;17.60;95.10;;;;;;4429427;32;20054;-68
2022/06/04 05:44:11;;;;;;;0.60;0.52;;;17.70;94.90;;;;;;4431047;32;20093;-68
2022/06/04 05:46:37;;;;;;;0.30;0.30;;;17.90;94.40;;;;;;4433727;32;20078;-68
2022/06/04 05:49:03;;;;;;;0.37;0.37;;;18.00;94.40;;;;;;4437166;32;20139;-68
2022/06/04 05:51:30;;;;;;;0.30;0.30;;;18.10;94.10;;;;;;4430160;32;20085;-68
2022/06/04 05:53:57;;;;;;;0.75;0.68;;;18.10;93.70;;;;;;4427954;32;20096;-68
2022/06/04 05:56:30;;;;;;;1.35;1.05;;;18.10;93.80;;;;;;4428327;32;20077;-68
2022/06/04 05:58:58;;;;;;;0.20;0.20;;;18.00;93.70;;;;;;4413464;32;20069;-68
2022/06/04 06:01:26;;;;;;;0.30;0.30;;;18.10;94.00;;;;;;4413148;32;20088;-68
2022/06/04 06:03:52;;;;;;;0.30;0.30;;;18.10;94.10;;;;;;4428407;32;20085;-70
2022/06/04 06:06:20;;;;;;;0.50;0.50;;;18.20;93.60;;;;;;4429701;32;20078;-68
2022/06/04 06:08:47;;;;;;;0.55;0.32;;;18.20;93.60;;;;;;4437544;32;20464;-68
2022/06/04 06:11:15;;;;;;;0.55;0.55;;;18.30;93.80;;;;;;4443239;32;20069;-68
2022/06/04 06:13:42;;;;;;;0.40;0.40;;;18.30;93.40;;;;;;4436672;32;20081;-69
2022/06/04 06:16:11;;;;;;;2.17;1.27;;;18.30;93.80;;;;;;4433450;32;20108;-69
2022/06/04 06:18:37;;;;;;;0.30;0.30;;;18.20;94.00;;;;;;4427822;32;20086;-68
2022/06/04 06:21:08;;;;;;;0.32;0.30;;;18.30;94.00;;;;;;4429533;32;20054;-68
2022/06/04 06:23:34;;;;;;;;;;;18.30;93.80;;;;;;4428602;32;20093;-68
2022/06/04 06:26:06;;;;;;;0.35;0.35;;;18.30;93.90;;;;;;4432720;32;19949;-68
2022/06/04 06:28:34;;;;;;;11.40;0.75;;;18.30;94.10;;;;;;4414699;32;20080;-68
2022/06/04 06:30:59;;;;;;;3.62;0.62;;;18.30;93.80;;;;;;4409347;32;20073;-68
2022/06/04 06:33:25;;;;;;;0.60;0.55;;;18.40;93.80;;;;;;4425262;32;20394;-68
2022/06/04 06:36:00;;;;;;;0.30;0.30;;;18.40;93.70;;;;;;4432880;32;20674;-68
2022/06/04 06:38:27;;;;;;;0.62;0.40;;;18.60;93.20;;;;;;4439179;32;20084;-69
2022/06/04 06:40:55;;;;;;;0.30;0.30;;;18.80;93.20;;;;;;4443941;32;20052;-68
2022/06/04 06:43:21;;;;;;;0.37;0.37;;;18.80;93.80;;;;;;4437110;32;20583;-68
2022/06/04 06:45:47;;;;;;;4.47;0.50;;;18.80;93.10;;;;;;4432783;32;20211;-68
2022/06/04 06:48:12;;;;;;;0.30;0.30;;;18.90;92.80;;;;;;4433946;32;20162;-68
2022/06/04 06:50:38;;;;;;;0.20;0.20;;;19.00;92.80;;;;;;4433442;32;20438;-68
2022/06/04 06:53:05;;;;;;;0.30;0.30;;;19.00;92.40;;;;;;4436295;32;20060;-68
2022/06/04 06:55:30;;;;;;;0.28;0.28;;;19.20;92.60;;;;;;4432132;32;20683;-68
2022/06/04 06:57:56;;;;;;;0.30;0.30;;;19.20;92.60;;;;;;4425361;32;20057;-68
2022/06/04 07:00:21;;;;;;;0.62;0.62;;;19.30;92.00;;;;;;4417577;32;20481;-68
2022/06/04 07:02:47;;;;;;;0.55;0.55;;;19.30;92.20;;;;;;4442300;32;20085;-67
2022/06/04 07:05:13;;;;;;;0.22;0.22;;;19.40;92.20;;;;;;4446784;32;20045;-68
2022/06/04 07:07:39;;;;;;;0.35;0.35;;;19.50;91.70;;;;;;4438977;32;20536;-68
2022/06/04 07:10:06;;;;;;;0.40;0.40;;;19.50;91.80;;;;;;4434907;32;20120;-68
2022/06/04 07:12:31;;;;;;;0.40;0.40;;;19.60;91.60;;;;;;4432796;32;20510;-68
2022/06/04 07:14:58;;;;;;;0.45;0.40;;;19.70;91.60;;;;;;4432190;32;20131;-68
2022/06/04 07:17:24;;;;;;;0.50;0.50;;;19.90;91.70;;;;;;4431131;32;20096;-68
2022/06/04 07:19:49;;;;;;;6.32;2.35;;;19.90;91.50;;;;;;4431520;32;20577;-68
2022/06/04 07:22:15;;;;;;;1.00;0.73;;;20.00;91.60;;;;;;4434895;32;20978;-68
2022/06/04 07:24:41;;;;;;;0.32;0.32;;;19.90;91.20;;;;;;4436652;32;20061;-68
2022/06/04 07:27:08;;;;;;;0.30;0.30;;;19.80;91.10;;;;;;4431827;32;20099;-68
2022/06/04 07:29:33;;;;;;;0.30;0.30;;;19.90;91.20;;;;;;4416655;32;20539;-68
2022/06/04 07:31:59;;;;;;;1.00;0.65;;;20.00;91.00;;;;;;4422581;32;20074;-68
2022/06/04 07:34:25;;;;;;;0.68;0.50;;;20.00;91.20;;;;;;4431176;32;20076;-68
2022/06/04 07:36:50;;;;;;;0.40;0.40;;;20.10;91.10;;;;;;4432214;32;20056;-69
2022/06/04 07:39:18;;;;;;;0.37;0.37;;;20.10;90.70;;;;;;4431390;32;20558;-69
2022/06/04 07:41:46;;;;;;;0.40;0.40;;;20.10;90.60;;;;;;4433397;32;20910;-69
2022/06/04 07:44:14;;;;;;;1.98;0.40;;;20.10;90.80;;;;;;4434419;32;20084;-69
2022/06/04 07:46:41;;;;;;;0.43;0.40;;;19.90;90.40;;;;;;4441502;32;20529;-69
2022/06/04 07:49:08;;;;;;;0.40;0.30;;;20.00;90.40;;;;;;4439023;32;20060;-69
2022/06/04 07:51:35;;;;;;;0.50;0.50;;;19.90;90.70;;;;;;4437281;32;20105;-69
2022/06/04 07:54:02;;;;;;;0.50;0.50;;;19.90;90.60;;;;;;4437517;32;20492;-69
2022/06/04 07:56:28;;;;;;;1.55;0.60;;;19.90;90.20;;;;;;4431580;32;20069;-69
2022/06/04 07:58:53;;;;;;;0.30;0.30;;;20.00;90.30;;;;;;4412284;32;20525;-68
2022/06/04 08:01:21;;;;;;;0.30;0.30;;;20.00;90.20;;;;;;4414445;32;20122;-69
2022/06/04 08:03:49;;;;;;;0.30;0.30;;;19.90;90.30;;;;;;4430495;32;20410;-68
2022/06/04 08:06:17;;;;;;;0.93;0.75;;;19.90;90.20;;;;;;4429137;32;20092;-68
2022/06/04 08:08:44;;;;;;;0.47;0.40;;;19.90;90.00;;;;;;4440098;32;20070;-68
2022/06/04 08:11:41;;;;;;;1.45;0.77;;;19.90;90.00;;;;;;4441463;32;20148;-69
2022/06/04 08:13:55;;;;;;;0.65;0.55;;;19.90;90.20;;;;;;4441996;32;20524;-69
2022/06/04 08:16:21;;;;;;;0.30;0.30;;;20.00;89.80;;;;;;4442676;32;20060;-69
2022/06/04 08:18:47;;;;;;;0.30;0.30;;;19.90;89.40;;;;;;4441841;32;20466;-69
2022/06/04 08:21:13;;;;;;;1.73;1.02;;;19.90;90.40;;;;;;4442893;32;20084;-69
2022/06/04 08:23:39;;;;;;;0.30;0.30;;;20.00;89.30;;;;;;4445274;32;20119;-69
2022/06/04 08:26:08;;;;;;;0.47;0.47;;;19.90;89.00;;;;;;4442120;32;20088;-69
2022/06/04 08:28:34;;;;;;;0.40;0.40;;;19.90;88.90;;;;;;4424981;32;20120;-69
2022/06/04 08:31:04;;;;;;;4.85;0.40;;;19.90;87.80;;;;;;4418729;32;20150;-69
2022/06/04 08:33:29;;;;;;;0.30;0.30;;;19.80;86.70;;;;;;4432354;32;20078;-68
2022/06/04 08:35:55;;;;;;;1.85;0.95;;;19.90;88.60;;;;;;4438101;32;20077;-69
2022/06/04 08:38:21;;;;;;;0.35;0.30;;;19.80;88.10;;;;;;4441324;32;20143;-69
2022/06/04 08:40:52;;;;;;;0.40;0.40;;;19.70;87.30;;;;;;4443495;32;20125;-69
2022/06/04 08:43:45;;;;;;;0.30;0.30;;;19.70;88.60;;;;;;4438176;32;20169;-68
2022/06/04 08:46:15;;;;;;;0.90;0.70;;;19.70;88.90;;;;;;4435338;32;20701;-68
2022/06/04 08:48:42;;;;;;;0.40;0.40;;;19.70;88.10;;;;;;4433008;32;20068;-68
2022/06/04 08:51:20;;;;;;;0.20;0.20;;;19.70;88.90;;;;;;4429780;32;20076;-69
2022/06/04 08:53:51;;;;;;;2.85;1.10;;;19.80;88.30;;;;;;4433729;32;20092;-69
2022/06/04 08:57:35;;;;;;;;;;;19.90;89.00;;;;;;4430532;32;20124;-69
2022/06/04 08:59:21;;;;;;;0.30;0.30;;;19.90;90.30;;;;;;4408135;32;19949;-69
2022/06/04 09:01:53;;;;;;;0.37;0.37;;;20.10;88.30;;;;;;4415008;32;20073;-69
2022/06/04 09:04:43;;;;;;;0.30;0.30;;;20.20;89.70;;;;;;4430747;32;20548;-69
2022/06/04 09:07:14;;;;;;;0.30;0.30;;;20.30;88.70;;;;;;4427966;32;20146;-69
2022/06/04 09:10:01;;;;;;;0.20;0.20;;;20.50;86.90;;;;;;4427161;32;20069;-69
2022/06/04 09:12:34;;;;;;;0.20;0.20;;;20.60;86.80;;;;;;4432267;32;20077;-69
2022/06/04 09:15:24;;;;;;;0.30;0.30;;;20.70;85.90;;;;;;4432608;32;20468;-69
2022/06/04 09:17:53;;;;;;;0.20;0.20;;;20.80;84.80;;;;;;4428521;32;20563;-69
2022/06/04 09:20:24;;;;;;;0.40;0.40;;;20.90;85.30;;;;;;4431236;32;20082;-69
2022/06/04 09:22:51;;;;;;;;;;;21.00;85.30;;;;;;4431694;32;20077;-69
2022/06/04 09:25:21;;;;;;;3.20;0.60;;;21.00;85.00;;;;;;4432955;32;19966;-69
2022/06/04 09:27:55;;;;;;;;;;;21.00;85.00;;;;;;4436523;32;20057;-69
2022/06/04 09:30:43;;;;;;;0.52;0.30;;;21.20;86.40;;;;;;4414722;32;20420;-69
2022/06/04 09:33:38;;;;;;;0.40;0.40;;;21.40;85.30;;;;;;4437738;32;20535;-69
2022/06/04 09:36:04;;;;;;;0.30;0.30;;;21.80;84.70;;;;;;4437826;32;20572;-69
2022/06/04 09:38:33;;;;;;;0.50;0.50;;;22.10;84.40;;;;;;4437511;32;20557;-69
2022/06/04 09:41:03;;;;;;;0.30;0.30;;;22.30;83.50;;;;;;4443405;32;20100;-69
2022/06/04 09:43:29;;;;;;;0.37;0.37;;;22.30;82.90;;;;;;4439028;32;20533;-69
2022/06/04 09:46:04;;;;;;;0.20;0.20;;;22.20;83.20;;;;;;4438470;32;20085;-69
2022/06/04 09:48:33;;;;;;;0.30;0.30;;;22.10;85.20;;;;;;4431997;32;20545;-69
2022/06/04 09:51:02;;;;;;;0.30;0.30;;;21.90;83.80;;;;;;4434310;32;20077;-69
2022/06/04 09:53:32;;;;;;;0.30;0.30;;;21.90;83.70;;;;;;4429718;32;20081;-69
2022/06/04 09:56:08;;;;;;;2.08;0.70;;;21.80;84.50;;;;;;4428009;32;20053;-69
2022/06/04 09:58:38;;;;;;;0.30;0.30;;;21.80;83.50;;;;;;4414731;32;20077;-69
2022/06/04 10:01:08;;;;;;;0.30;0.30;;;21.70;85.70;;;;;;4409376;32;20394;-69
2022/06/04 10:03:37;;;;;;;0.85;0.77;;;21.60;84.10;;;;;;4443794;32;20061;-69
2022/06/04 10:06:07;;;;;;;0.80;0.75;;;21.60;85.50;;;;;;4440347;32;20061;-69
2022/06/04 10:09:55;;;;;;;0.20;0.20;;;21.50;85.40;;;;;;4438238;32;20076;-69
2022/06/04 10:11:23;;;;;;;0.20;0.20;;;21.50;85.00;;;;;;4438172;32;20137;-69
2022/06/04 10:13:52;;;;;;;0.30;0.22;;;21.50;84.40;;;;;;4442387;32;20065;-69
2022/06/04 10:16:28;;;;;;;0.30;0.30;;;21.50;85.60;;;;;;4436841;32;20547;-69
2022/06/04 10:18:57;;;;;;;0.30;0.30;;;21.60;85.50;;;;;;4440101;32;20093;-68
2022/06/04 10:21:27;;;;;;;1.75;1.15;;;21.70;85.00;;;;;;4437907;32;20426;-68
2022/06/04 10:23:55;;;;;;;0.40;0.40;;;21.80;84.60;;;;;;4431984;32;20128;-68
2022/06/04 10:26:41;;;;;;;0.30;0.30;;;21.80;85.00;;;;;;4435264;32;20065;-68
2022/06/04 10:29:10;;;;;;;1.65;0.85;;;21.80;85.20;;;;;;4417597;32;20215;-69
2022/06/04 10:31:52;;;;;;;0.32;0.32;;;21.90;84.60;;;;;;4426674;32;20532;-68
2022/06/04 10:34:31;;;;;;;0.30;0.30;;;22.10;83.40;;;;;;4439701;32;20070;-68
2022/06/04 10:37:18;;;;;;;0.30;0.30;;;22.30;85.30;;;;;;4436947;32;20056;-68
2022/06/04 10:39:50;;;;;;;0.20;0.20;;;22.40;83.70;;;;;;4444084;32;20081;-68
2022/06/04 10:42:29;;;;;;;0.35;0.35;;;22.60;82.80;;;;;;4441016;32;20057;-68
2022/06/04 10:45:12;;;;;;;0.45;0.45;;;22.70;82.90;;;;;;4439369;32;20097;-68
2022/06/04 10:47:48;;;;;;;0.30;0.30;;;22.70;83.70;;;;;;4435498;32;20060;-68
2022/06/04 10:50:26;;;;;;;0.50;0.50;;;22.70;82.20;;;;;;4440439;32;20186;-69
2022/06/04 10:52:58;;;;;;;0.30;0.30;;;22.70;83.00;;;;;;4435485;32;20199;-68
2022/06/04 10:55:50;;;;;;;0.30;0.30;;;22.80;83.80;;;;;;4441288;32;20061;-68
2022/06/04 10:58:27;;;;;;;0.30;0.30;;;22.90;83.50;;;;;;4431510;32;20513;-68
2022/06/04 11:00:59;;;;;;;0.10;0.10;;;23.00;82.90;;;;;;4422060;32;20376;-68
2022/06/04 11:04:01;;;;;;;0.30;0.30;;;23.20;83.50;;;;;;4443915;32;20089;-68
2022/06/04 11:06:31;;;;;;;0.30;0.30;;;23.40;81.70;;;;;;4432555;32;20093;-68
2022/06/04 11:09:03;;;;;;;0.28;0.28;;;23.70;80.60;;;;;;4442317;32;20085;-69
2022/06/04 11:11:39;;;;;;;0.30;0.30;;;24.00;80.50;;;;;;4434643;32;20166;-69
2022/06/04 11:14:38;;;;;;;0.28;0.28;;;24.10;80.50;;;;;;4440113;32;20549;-68
2022/06/04 11:17:14;;;;;;;0.43;0.43;;;24.00;80.00;;;;;;4437592;32;20409;-69
2022/06/04 11:19:52;;;;;;;0.30;0.30;;;24.00;79.40;;;;;;4440488;32;20069;-69
2022/06/04 11:22:26;;;;;;;0.35;0.35;;;23.90;79.50;;;;;;4436823;32;20077;-69
2022/06/04 11:25:18;;;;;;;2.95;1.00;;;24.10;80.10;;;;;;4438669;32;20146;-68
2022/06/04 11:27:49;;;;;;;5.40;0.32;;;24.20;79.00;;;;;;4435558;32;20356;-68
2022/06/04 11:30:21;;;;;;;0.30;0.30;;;24.30;79.40;;;;;;4417682;32;20438;-68
2022/06/04 11:33:16;;;;;;;0.35;0.35;;;24.10;78.40;;;;;;4436791;32;20439;-68
2022/06/04 11:35:46;;;;;;;0.40;0.40;;;24.10;78.50;;;;;;4440391;32;20077;-68
2022/06/04 11:38:39;;;;;;;0.28;0.28;;;24.00;78.90;;;;;;4440805;32;20065;-68
2022/06/04 11:41:30;;;;;;;1.60;0.73;;;23.90;78.40;;;;;;4435970;32;20080;-68
2022/06/04 11:44:26;;;;;;;0.40;0.40;;;24.00;79.10;;;;;;4438068;32;20077;-68
2022/06/04 11:47:05;;;;;;;0.37;0.37;;;23.90;78.90;;;;;;4433757;32;20187;-68
2022/06/04 11:49:55;;;;;;;0.20;0.20;;;23.90;78.10;;;;;;4429065;32;20112;-68
2022/06/04 11:52:24;;;;;;;0.20;0.20;;;24.00;79.50;;;;;;4432665;32;20085;-68
2022/06/04 11:55:12;;;;;;;0.40;0.40;;;23.90;79.10;;;;;;4436616;32;20539;-69
2022/06/04 11:57:55;;;;;;;0.32;0.32;;;23.90;81.10;;;;;;4432105;32;20053;-69
2022/06/04 12:00:26;;;;;;;2.50;0.45;;;24.00;79.80;;;;;;4416435;32;20662;-68
2022/06/04 12:03:02;;;;;;;0.37;0.37;;;24.20;79.40;;;;;;4436504;32;20052;-68
2022/06/04 12:05:37;;;;;;;0.40;0.40;;;24.30;77.90;;;;;;4441231;32;20163;-68
2022/06/04 12:08:08;;;;;;;0.65;0.62;;;24.40;78.00;;;;;;4437687;32;20069;-69
2022/06/04 12:11:08;;;;;;;0.30;0.30;;;24.30;77.80;;;;;;4441212;32;20089;-69
2022/06/04 12:13:54;;;;;;;0.40;0.40;;;24.40;77.20;;;;;;4440998;32;20052;-69
2022/06/04 12:16:43;;;;;;;0.20;0.20;;;24.40;77.70;;;;;;4439567;32;20069;-69
2022/06/04 12:24:30;;;;;;;2.28;0.70;;;24.60;76.40;;;;;;4442417;32;20073;-68
2022/06/04 12:25:19;;;;;;;0.40;0.40;;;24.50;77.20;;;;;;4438420;32;20073;-69
2022/06/04 12:28:03;;;;;;;0.20;0.20;;;24.80;77.60;;;;;;4432749;32;20148;-69
2022/06/04 12:30:39;;;;;;;0.28;0.28;;;25.40;75.30;;;;;;4418992;32;20435;-69
2022/06/04 12:33:16;;;;;;;0.20;0.20;;;25.50;75.70;;;;;;4434845;32;20066;-69
2022/06/04 12:35:52;;;;;;;4.90;0.85;;;25.50;77.20;;;;;;4441703;32;20085;-69
2022/06/04 12:38:22;;;;;;;0.30;0.30;;;25.40;74.80;;;;;;4440454;32;20081;-69
2022/06/04 12:40:48;;;;;;;0.68;0.62;;;25.40;77.50;;;;;;4444838;32;20505;-68
2022/06/04 12:43:19;;;;;;;0.30;0.30;;;25.30;79.10;;;;;;4439847;32;20538;-68
2022/06/04 12:45:51;;;;;;;0.20;0.20;;;25.20;76.60;;;;;;4437113;32;20160;-68
2022/06/04 12:48:22;;;;;;;0.30;0.30;;;25.20;78.10;;;;;;4430950;32;20633;-69
2022/06/04 12:50:57;;;;;;;0.30;0.30;;;25.10;78.50;;;;;;4428778;32;20053;-68
2022/06/04 12:53:24;;;;;;;0.25;0.25;;;25.00;77.50;;;;;;4434826;32;20093;-68
2022/06/04 12:55:53;;;;;;;0.30;0.30;;;24.90;78.20;;;;;;4431162;32;20077;-69
2022/06/04 12:58:29;;;;;;;0.30;0.30;;;24.90;78.90;;;;;;4420694;32;20065;-69
2022/06/04 13:01:18;;;;;;;0.13;0.13;;;24.80;77.80;;;;;;4406243;32;20064;-69
2022/06/04 13:03:45;;;;;;;0.28;0.28;;;24.90;78.90;;;;;;4430906;32;20592;-69
2022/06/04 13:06:16;;;;;;;0.37;0.37;;;25.00;78.30;;;;;;4431391;32;20096;-69
2022/06/04 13:08:46;;;;;;;0.40;0.40;;;25.00;78.60;;;;;;4426418;32;20073;-69
2022/06/04 13:11:51;;;;;;;4.18;1.02;;;25.00;79.10;;;;;;4427198;32;20092;-69
2022/06/04 13:14:33;;;;;;;0.47;0.40;;;25.10;78.30;;;;;;4424150;32;20543;-68
2022/06/04 13:17:30;;;;;;;0.20;0.20;;;25.30;77.90;;;;;;4427402;32;20105;-69